createdAt,value
2022-12-01T00:01:03.485Z,96631.75
2022-12-01T00:05:15.843Z,96629.88
2022-12-01T00:09:46.645Z,96615.56
2022-12-01T00:13:59.377Z,96618.25
2022-12-01T00:18:11.659Z,96620.88
2022-12-01T00:22:24.083Z,96611.22
2022-12-01T00:26:38.733Z,96618.19
2022-12-01T00:30:51.019Z,96617.47
2022-12-01T00:35:04.555Z,96622.03
2022-12-01T00:39:17.582Z,96622.44
2022-12-01T00:43:29.889Z,96612.69
2022-12-01T00:47:42.160Z,96610.31
2022-12-01T00:51:54.565Z,96610.78
2022-12-01T00:56:07.694Z,96620.06
2022-12-01T01:00:20.183Z,96619.69
2022-12-01T01:04:34.480Z,96624.34
2022-12-01T01:08:46.957Z,96629.03
2022-12-01T01:12:59.230Z,96627.00
2022-12-01T01:17:11.498Z,96619.59
2022-12-01T01:21:23.781Z,96634.75
2022-12-01T01:25:36.111Z,96621.19
2022-12-01T01:29:48.571Z,96612.56
2022-12-01T01:34:01.547Z,96622.16
2022-12-01T01:38:13.927Z,96627.25
2022-12-01T01:42:26.225Z,96625.69
2022-12-01T01:46:38.556Z,96621.06
2022-12-01T01:50:50.861Z,96616.44
2022-12-01T01:55:03.695Z,96624.94
2022-12-01T01:59:21.525Z,96625.72
2022-12-01T02:03:44.204Z,96601.78
2022-12-01T02:07:59.288Z,96607.22
2022-12-01T02:12:28.810Z,96582.38
2022-12-01T02:17:10.354Z,96608.38
2022-12-01T02:21:32.267Z,96604.91
2022-12-01T02:26:12.544Z,96599.63
2022-12-01T02:30:41.764Z,96595.66
2022-12-01T02:35:09.304Z,96594.53
2022-12-01T02:39:39.847Z,96594.22
2022-12-01T02:44:14.807Z,96585.22
2022-12-01T02:48:34.536Z,96587.84
2022-12-01T02:52:46.932Z,96575.88
2022-12-01T02:57:13.376Z,96572.00
2022-12-01T03:01:28.475Z,96579.78
2022-12-01T03:05:43.478Z,96578.97
2022-12-01T03:10:04.886Z,96580.41
2022-12-01T03:14:42.275Z,96579.50
2022-12-01T03:19:04.354Z,96584.84
2022-12-01T03:23:22.639Z,96572.38
2022-12-01T03:27:38.586Z,96584.44
2022-12-01T03:31:57.661Z,96580.22
2022-12-01T03:36:15.978Z,96581.47
2022-12-01T03:40:31.464Z,96581.75
2022-12-01T03:44:51.798Z,96586.84
2022-12-01T03:49:06.447Z,96594.25
2022-12-01T03:53:25.120Z,96591.09
2022-12-01T03:57:45.136Z,96601.25
2022-12-01T04:01:58.938Z,96604.34
2022-12-01T04:06:11.282Z,96586.59
2022-12-01T04:10:23.583Z,96586.22
2022-12-01T04:14:35.947Z,96579.50
2022-12-01T04:18:48.329Z,96579.88
2022-12-01T04:23:00.620Z,96579.56
2022-12-01T04:27:13.423Z,96587.31
2022-12-01T04:31:25.801Z,96580.13
2022-12-01T04:35:57.157Z,96587.94
2022-12-01T04:40:09.922Z,96580.97
2022-12-01T04:44:34.279Z,96587.47
2022-12-01T04:48:47.186Z,96577.78
2022-12-01T04:52:59.429Z,96579.41
2022-12-01T04:57:21.820Z,96583.16
2022-12-01T05:01:34.765Z,96576.56
2022-12-01T05:05:47.069Z,96580.13
2022-12-01T05:09:59.360Z,96572.28
2022-12-01T05:14:11.731Z,96583.47
2022-12-01T05:18:24.036Z,96586.00
2022-12-01T05:23:03.809Z,96596.09
2022-12-01T05:27:08.596Z,96591.41
2022-12-01T05:31:20.907Z,96589.50
2022-12-01T05:35:36.282Z,96588.31
2022-12-01T05:39:48.873Z,96585.88
2022-12-01T05:44:01.272Z,96594.06
2022-12-01T05:48:23.434Z,96608.00
2022-12-01T05:52:36.529Z,96592.59
2022-12-01T05:56:48.843Z,96596.56
2022-12-01T06:01:01.258Z,96600.44
2022-12-01T06:05:13.958Z,96589.47
2022-12-01T06:09:26.227Z,96606.88
2022-12-01T06:13:38.701Z,96606.13
2022-12-01T06:17:50.994Z,96607.88
2022-12-01T06:22:03.440Z,96606.72
2022-12-01T06:26:15.774Z,96604.69
2022-12-01T06:30:28.531Z,96601.38
2022-12-01T06:34:40.857Z,96611.50
2022-12-01T06:38:53.237Z,96619.22
2022-12-01T06:43:05.856Z,96612.75
2022-12-01T06:47:18.146Z,96623.13
2022-12-01T06:51:31.258Z,96616.06
2022-12-01T06:55:43.917Z,96623.81
2022-12-01T06:59:56.644Z,96623.72
2022-12-01T07:04:09.513Z,96627.78
2022-12-01T07:08:21.769Z,96622.47
2022-12-01T07:12:34.092Z,96628.34
2022-12-01T07:16:46.432Z,96628.50
2022-12-01T07:21:03.309Z,96632.69
2022-12-01T07:25:15.753Z,96632.69
2022-12-01T07:29:32.155Z,96631.06
2022-12-01T07:33:44.848Z,96646.22
2022-12-01T07:37:59.949Z,96639.78
2022-12-01T07:42:12.265Z,96633.34
2022-12-01T07:46:27.477Z,96646.22
2022-12-01T07:50:39.847Z,96645.94
2022-12-01T07:54:52.204Z,96651.88
2022-12-01T07:59:04.508Z,96651.97
2022-12-01T08:03:16.879Z,96650.56
2022-12-01T08:07:30.091Z,96641.22
2022-12-01T08:11:42.486Z,96644.78
2022-12-01T08:15:55.065Z,96658.38
2022-12-01T08:20:08.858Z,96663.59
2022-12-01T08:24:21.148Z,96654.88
2022-12-01T08:28:36.202Z,96662.06
2022-12-01T08:32:48.606Z,96664.06
2022-12-01T08:37:00.869Z,96661.59
2022-12-01T08:41:23.233Z,96656.53
2022-12-01T08:45:35.535Z,96660.38
2022-12-01T08:49:48.294Z,96664.03
2022-12-01T08:54:02.178Z,96656.16
2022-12-01T08:58:14.444Z,96645.13
2022-12-01T09:02:26.857Z,96646.72
2022-12-01T09:06:42.368Z,96663.50
2022-12-01T09:10:54.661Z,96654.06
2022-12-01T09:15:07.255Z,96668.06
2022-12-01T09:19:24.507Z,96657.03
2022-12-01T09:23:37.509Z,96663.78
2022-12-01T09:27:49.773Z,96677.66
2022-12-01T09:32:02.463Z,96671.22
2022-12-01T09:36:18.739Z,96659.41
2022-12-01T09:40:35.744Z,96664.25
2022-12-01T09:44:53.917Z,96653.59
2022-12-01T09:49:09.472Z,96653.16
2022-12-01T09:53:26.051Z,96660.38
2022-12-01T09:57:41.112Z,96646.28
2022-12-01T10:02:00.976Z,96651.44
2022-12-01T10:06:29.150Z,96651.00
2022-12-01T10:10:46.037Z,96635.59
2022-12-01T10:15:33.710Z,96642.41
2022-12-01T10:19:57.866Z,96627.66
2022-12-01T10:24:34.005Z,96620.06
2022-12-01T10:28:49.250Z,96619.03
2022-12-01T10:33:22.429Z,96624.13
2022-12-01T10:37:34.762Z,96613.88
2022-12-01T10:41:49.711Z,96606.22
2022-12-01T10:46:23.974Z,96600.34
2022-12-01T10:50:37.232Z,96608.94
2022-12-01T10:54:49.495Z,96609.16
2022-12-01T10:59:18.371Z,96598.63
2022-12-01T11:03:38.117Z,96598.78
2022-12-01T11:07:51.263Z,96590.94
2022-12-01T11:12:05.390Z,96590.88
2022-12-01T11:16:44.118Z,96594.63
2022-12-01T11:21:15.741Z,96591.25
2022-12-01T11:25:28.026Z,96588.34
2022-12-01T11:29:40.935Z,96595.41
2022-12-01T11:33:55.612Z,96581.88
2022-12-01T11:42:49.117Z,96582.25
2022-12-01T11:47:24.411Z,96591.69
2022-12-01T11:51:38.431Z,96583.97
2022-12-01T11:55:50.812Z,96586.22
2022-12-01T12:00:14.367Z,96594.34
2022-12-01T12:04:35.764Z,96588.34
2022-12-01T12:09:20.199Z,96583.06
2022-12-01T12:13:53.841Z,96575.91
2022-12-01T12:18:22.071Z,96576.69
2022-12-01T12:23:01.489Z,96580.97
2022-12-01T12:27:16.607Z,96566.88
2022-12-01T12:31:46.785Z,96572.50
2022-12-01T12:36:17.175Z,96564.34
2022-12-01T12:40:41.821Z,96559.50
2022-12-01T12:45:30.698Z,96568.13
2022-12-01T12:49:54.983Z,96566.03
2022-12-01T12:54:22.454Z,96567.81
2022-12-01T12:58:43.964Z,96572.19
2022-12-01T13:03:22.227Z,96575.03
2022-12-01T13:07:53.359Z,96568.25
2022-12-01T13:12:10.722Z,96557.66
2022-12-01T13:16:51.249Z,96565.78
2022-12-01T13:21:05.383Z,96572.13
2022-12-01T13:25:35.188Z,96554.91
2022-12-01T13:29:50.588Z,96567.69
2022-12-01T13:34:06.522Z,96555.31
2022-12-01T13:38:31.080Z,96553.03
2022-12-01T13:42:44.063Z,96561.69
2022-12-01T13:47:05.405Z,96554.06
2022-12-01T13:51:18.180Z,96548.16
2022-12-01T13:55:30.662Z,96552.25
2022-12-01T14:00:01.329Z,96557.34
2022-12-01T14:04:16.336Z,96550.97
2022-12-01T14:08:35.241Z,96551.44
2022-12-01T14:12:47.841Z,96545.34
2022-12-01T14:17:03.314Z,96552.06
2022-12-01T14:21:16.085Z,96551.91
2022-12-01T14:25:31.498Z,96553.91
2022-12-01T14:29:44.012Z,96554.63
2022-12-01T14:34:11.215Z,96555.84
2022-12-01T14:38:28.759Z,96546.00
2022-12-01T14:43:03.061Z,96557.13
2022-12-01T14:47:23.053Z,96553.09
2022-12-01T14:51:36.924Z,96554.28
2022-12-01T14:55:57.908Z,96556.16
2022-12-01T15:00:25.625Z,96561.97
2022-12-01T15:05:07.915Z,96560.75
2022-12-01T15:09:37.519Z,96560.31
2022-12-01T15:13:52.507Z,96554.47
2022-12-01T15:18:22.383Z,96558.28
2022-12-01T15:22:34.826Z,96550.50
2022-12-01T15:26:49.417Z,96561.78
2022-12-01T15:31:06.234Z,96562.31
2022-12-01T15:35:23.046Z,96559.56
2022-12-01T15:39:38.225Z,96556.63
2022-12-01T15:43:59.347Z,96557.34
2022-12-01T15:48:25.486Z,96562.50
2022-12-01T15:52:45.419Z,96564.16
2022-12-01T15:56:59.405Z,96564.69
2022-12-01T16:01:21.943Z,96566.78
2022-12-01T16:05:36.553Z,96570.19
2022-12-01T16:10:00.199Z,96558.44
2022-12-01T16:14:22.832Z,96568.69
2022-12-01T16:18:35.292Z,96568.22
2022-12-01T16:22:51.922Z,96568.22
2022-12-01T16:27:07.558Z,96572.25
2022-12-01T16:31:20.586Z,96571.06
2022-12-01T16:35:34.828Z,96570.19
2022-12-01T16:39:47.125Z,96566.72
2022-12-01T16:44:20.668Z,96566.34
2022-12-01T16:48:41.759Z,96567.88
2022-12-01T16:52:54.068Z,96572.63
2022-12-01T16:57:06.688Z,96571.69
2022-12-01T17:01:19.286Z,96567.84
2022-12-01T17:05:31.791Z,96563.31
2022-12-01T17:09:44.106Z,96566.66
2022-12-01T17:13:56.426Z,96557.41
2022-12-01T17:18:08.735Z,96556.69
2022-12-01T17:22:21.192Z,96556.22
2022-12-01T17:26:34.687Z,96560.88
2022-12-01T17:30:47.407Z,96555.03
2022-12-01T17:34:59.871Z,96558.19
2022-12-01T17:39:12.172Z,96551.28
2022-12-01T17:43:24.446Z,96556.50
2022-12-01T17:47:36.761Z,96568.28
2022-12-01T17:51:49.170Z,96570.88
2022-12-01T17:56:01.603Z,96571.66
2022-12-01T18:00:14.652Z,96565.88
2022-12-01T18:04:26.991Z,96566.63
2022-12-01T18:08:40.569Z,96562.38
2022-12-01T18:12:56.625Z,96566.72
2022-12-01T18:17:08.947Z,96575.34
2022-12-01T18:21:23.634Z,96575.75
2022-12-01T18:25:37.566Z,96577.06
2022-12-01T18:29:59.942Z,96582.13
2022-12-01T18:34:12.834Z,96580.38
2022-12-01T18:38:25.766Z,96588.91
2022-12-01T18:42:39.825Z,96583.22
2022-12-01T18:46:52.266Z,96582.94
2022-12-01T18:51:06.364Z,96584.03
2022-12-01T18:55:18.651Z,96569.06
2022-12-01T18:59:31.016Z,96579.66
2022-12-01T19:03:43.275Z,96583.28
2022-12-01T19:07:55.611Z,96571.47
2022-12-01T19:12:08.217Z,96576.44
2022-12-01T19:16:20.962Z,96576.41
2022-12-01T19:20:38.220Z,96582.81
2022-12-01T19:24:51.561Z,96573.75
2022-12-01T19:29:04.709Z,96582.03
2022-12-01T19:33:17.068Z,96580.19
2022-12-01T19:37:29.352Z,96579.75
2022-12-01T19:41:41.839Z,96587.13
2022-12-01T19:45:54.173Z,96586.34
2022-12-01T19:50:07.098Z,96587.44
2022-12-01T19:54:20.613Z,96593.69
2022-12-01T19:58:34.231Z,96590.53
2022-12-01T20:02:46.566Z,96578.34
2022-12-01T20:06:59.148Z,96574.91
2022-12-01T20:11:13.634Z,96572.72
2022-12-01T20:15:25.939Z,96576.06
2022-12-01T20:19:38.905Z,96572.03
2022-12-01T20:23:55.584Z,96570.84
2022-12-01T20:28:07.856Z,96578.03
2022-12-01T20:32:23.515Z,96582.25
2022-12-01T20:36:36.986Z,96581.44
2022-12-01T20:40:59.268Z,96574.06
2022-12-01T20:45:11.974Z,96575.19
2022-12-01T20:49:24.756Z,96571.41
2022-12-01T20:53:37.268Z,96574.06
2022-12-01T20:57:49.618Z,96575.50
2022-12-01T21:02:02.070Z,96570.06
2022-12-01T21:06:16.086Z,96577.00
2022-12-01T21:10:29.032Z,96578.84
2022-12-01T21:15:02.423Z,96571.34
2022-12-01T21:19:21.289Z,96571.84
2022-12-01T21:23:43.555Z,96575.88
2022-12-01T21:28:00.804Z,96564.88
2022-12-01T21:32:44.192Z,96571.41
2022-12-01T21:37:15.090Z,96575.94
2022-12-01T21:41:31.802Z,96576.38
2022-12-01T21:45:44.250Z,96559.25
2022-12-01T21:49:58.786Z,96568.09
2022-12-01T21:54:20.088Z,96568.13
2022-12-01T21:58:37.117Z,96570.06
2022-12-01T22:03:10.441Z,96568.88
2022-12-01T22:07:22.831Z,96566.19
2022-12-01T22:11:35.178Z,96548.56
2022-12-01T22:15:47.503Z,96557.53
2022-12-01T22:20:03.612Z,96550.94
2022-12-01T22:24:40.107Z,96555.22
2022-12-01T22:28:56.924Z,96557.88
2022-12-01T22:33:20.821Z,96548.13
2022-12-01T22:37:46.747Z,96540.72
2022-12-01T22:42:02.088Z,96541.06
2022-12-01T22:46:38.226Z,96536.03
2022-12-01T22:50:52.123Z,96533.38
2022-12-01T22:55:15.836Z,96527.81
2022-12-01T22:59:34.944Z,96532.97
2022-12-01T23:03:47.381Z,96515.28
2022-12-01T23:08:13.819Z,96520.81
2022-12-01T23:12:33.131Z,96523.97
2022-12-01T23:16:45.560Z,96527.06
2022-12-01T23:21:00.028Z,96520.88
2022-12-01T23:25:15.564Z,96518.72
2022-12-01T23:29:27.839Z,96518.63
2022-12-01T23:33:40.128Z,96503.91
2022-12-01T23:37:54.061Z,96508.41
2022-12-01T23:42:06.897Z,96502.78
2022-12-01T23:46:23.494Z,96494.84
2022-12-01T23:50:35.826Z,96491.22
2022-12-01T23:54:49.283Z,96487.53
2022-12-01T23:59:13.008Z,96485.31
